Time;durP1;ratioP1;P1;durP2;ratioP2;P2;SDS_P1;SDS_P2;PMS_P1;PMS_P2;Temp;Humidity;BMP_temperature;BMP_pressure;BME280_temperature;BME280_humidity;BME280_pressure;Samples;Min_cycle;Max_cycle;Signal;HPM_P1;HPM_P2
2024/01/16 00:01:45;;;;;;;13.90;11.77;;;1.60;99.90;;;;;;5080436;28;20181;-88
2024/01/16 00:04:11;;;;;;;17.07;12.83;;;1.40;99.90;;;;;;5079734;28;20197;-87
2024/01/16 00:06:43;;;;;;;17.37;12.50;;;1.90;99.90;;;;;;5079845;28;20258;-87
2024/01/16 00:09:12;;;;;;;14.97;13.53;;;1.30;99.90;;;;;;5062056;28;20184;-87
2024/01/16 00:11:42;;;;;;;15.90;12.17;;;1.60;99.90;;;;;;5079766;28;20178;-87
2024/01/16 00:14:07;;;;;;;17.07;13.27;;;1.30;99.90;;;;;;5078415;28;20196;-87
2024/01/16 00:16:33;;;;;;;15.97;13.43;;;1.40;99.90;;;;;;5077586;28;20249;-87
2024/01/16 00:18:59;;;;;;;16.70;12.27;;;1.70;99.90;;;;;;5078100;28;20694;-87
2024/01/16 00:21:25;;;;;;;18.37;12.27;;;1.10;99.90;;;;;;5077508;28;20394;-87
2024/01/16 00:23:51;;;;;;;15.87;13.17;;;1.10;99.90;;;;;;5082386;28;20919;-87
2024/01/16 00:26:23;;;;;;;13.03;11.60;;;1.10;99.90;;;;;;5097541;28;20182;-87
2024/01/16 00:28:49;;;;;;;18.47;13.00;;;1.10;99.90;;;;;;5074243;28;20189;-87
2024/01/16 00:31:14;;;;;;;15.90;10.07;;;1.10;99.90;;;;;;5076522;28;20285;-87
2024/01/16 00:33:40;;;;;;;17.10;12.00;;;1.10;99.90;;;;;;5077212;28;20210;-86
2024/01/16 00:36:07;;;;;;;16.17;11.13;;;1.00;99.90;;;;;;5077384;28;20185;-87
2024/01/16 00:38:33;;;;;;;19.17;11.83;;;1.00;99.90;;;;;;5064248;28;20981;-86
2024/01/16 00:40:59;;;;;;;14.70;11.73;;;1.20;99.90;;;;;;5060571;28;20174;-87
2024/01/16 00:43:25;;;;;;;14.90;12.07;;;1.70;99.90;;;;;;5078929;28;20620;-87
2024/01/16 00:45:51;;;;;;;15.70;12.03;;;1.40;99.90;;;;;;5061889;28;20291;-87
2024/01/16 00:48:18;;;;;;;22.80;12.70;;;1.40;99.90;;;;;;5071657;28;20217;-87
2024/01/16 00:50:46;;;;;;;19.23;12.40;;;1.30;99.90;;;;;;5079121;28;20253;-87
2024/01/16 00:53:11;;;;;;;17.43;13.00;;;1.30;99.90;;;;;;5078647;28;20708;-87
2024/01/16 00:55:37;;;;;;;17.47;11.93;;;1.10;99.90;;;;;;5065459;28;20271;-87
2024/01/16 00:58:03;;;;;;;14.47;10.43;;;1.20;99.90;;;;;;5078638;28;20196;-87
2024/01/16 01:00:31;;;;;;;23.27;12.73;;;1.20;99.90;;;;;;5081184;28;20174;-87
2024/01/16 01:02:58;;;;;;;19.33;12.47;;;1.30;99.90;;;;;;5080667;28;20178;-87
2024/01/16 01:05:28;;;;;;;10.97;9.27;;;1.20;99.90;;;;;;5080082;28;20181;-87
2024/01/16 01:07:55;;;;;;;15.37;11.73;;;1.20;99.90;;;;;;5063392;28;20205;-87
2024/01/16 01:10:20;;;;;;;14.67;11.33;;;1.30;99.90;;;;;;5067798;28;20174;-86
2024/01/16 01:12:46;;;;;;;11.80;10.80;;;1.40;99.90;;;;;;5068284;28;20629;-87
2024/01/16 01:15:13;;;;;;;15.43;11.60;;;1.20;99.90;;;;;;5069024;28;20242;-87
2024/01/16 01:17:43;;;;;;;18.37;11.90;;;1.20;99.90;;;;;;5082499;28;20696;-87
2024/01/16 01:20:12;;;;;;;16.13;12.30;;;1.20;99.90;;;;;;5103815;28;20190;-87
2024/01/16 01:22:37;;;;;;;11.13;9.87;;;1.10;99.90;;;;;;5087800;28;20177;-87
2024/01/16 01:25:03;;;;;;;10.60;9.40;;;1.20;99.90;;;;;;5083606;28;20177;-86
2024/01/16 01:27:29;;;;;;;16.67;10.50;;;1.10;99.90;;;;;;5077815;28;20212;-87
2024/01/16 01:29:55;;;;;;;16.60;11.47;;;1.20;99.90;;;;;;5077312;28;20289;-87
2024/01/16 01:32:21;;;;;;;17.70;10.53;;;1.20;99.90;;;;;;5077745;28;20201;-87
2024/01/16 01:34:47;;;;;;;12.03;10.77;;;1.70;99.90;;;;;;5062642;28;20170;-86
2024/01/16 01:37:12;;;;;;;13.83;9.97;;;1.20;99.90;;;;;;5061082;28;20552;-86
2024/01/16 01:39:38;;;;;;;14.60;11.43;;;1.10;99.90;;;;;;5061528;28;20175;-87
2024/01/16 01:42:05;;;;;;;12.67;11.37;;;1.10;99.90;;;;;;5068896;28;20170;-87
2024/01/16 01:44:31;;;;;;;18.13;11.83;;;1.00;99.90;;;;;;5075022;28;20174;-87
2024/01/16 01:46:57;;;;;;;22.00;12.10;;;1.10;99.90;;;;;;5063254;28;20205;-86
2024/01/16 01:49:24;;;;;;;13.13;11.27;;;1.20;99.90;;;;;;5076673;28;20182;-87
2024/01/16 01:51:50;;;;;;;11.90;10.27;;;1.10;99.90;;;;;;5078239;28;20200;-87
2024/01/16 01:54:17;;;;;;;19.37;13.57;;;1.40;99.90;;;;;;5082590;28;20186;-87
2024/01/16 01:56:47;;;;;;;16.73;13.23;;;1.20;99.90;;;;;;5067245;28;20190;-87
2024/01/16 01:59:18;;;;;;;15.03;12.90;;;1.20;99.90;;;;;;5065258;28;20181;-87
2024/01/16 02:01:48;;;;;;;15.47;12.03;;;1.00;99.90;;;;;;5081508;28;20174;-87
2024/01/16 02:04:17;;;;;;;12.63;11.33;;;1.00;99.90;;;;;;5065405;28;20170;-87
2024/01/16 02:06:44;;;;;;;15.27;11.73;;;1.10;99.90;;;;;;5065383;28;20269;-87
2024/01/16 02:09:13;;;;;;;16.63;11.63;;;1.10;99.90;;;;;;5065108;28;20232;-87
2024/01/16 02:11:41;;;;;;;15.30;11.57;;;1.10;99.90;;;;;;5081534;28;20174;-87
2024/01/16 02:14:07;;;;;;;13.27;11.13;;;1.50;99.90;;;;;;5092513;22;20721;-72
2024/01/16 02:16:41;;;;;;;12.63;10.57;;;1.00;99.90;;;;;;5054197;28;20275;-71
2024/01/16 02:19:08;;;;;;;11.60;8.87;;;0.90;99.90;;;;;;5053750;28;20183;-71
2024/01/16 02:21:53;;;;;;;15.33;8.60;;;1.10;99.90;;;;;;5052928;28;20195;-72
2024/01/16 02:24:19;;;;;;;13.07;10.40;;;1.00;99.90;;;;;;5054317;28;20175;-70
2024/01/16 02:26:45;;;;;;;15.27;9.90;;;1.10;99.90;;;;;;5054443;28;20174;-71
2024/01/16 02:29:11;;;;;;;15.73;10.80;;;1.00;99.90;;;;;;5080817;22;20226;-86
2024/01/16 02:31:37;;;;;;;15.23;9.67;;;1.40;99.90;;;;;;5059012;28;20181;-87
2024/01/16 02:34:04;;;;;;;13.33;10.13;;;0.90;99.90;;;;;;5057577;28;20221;-87
2024/01/16 02:36:31;;;;;;;16.90;11.20;;;1.20;99.90;;;;;;5069298;28;20239;-88
2024/01/16 02:38:56;;;;;;;19.97;10.33;;;1.00;99.90;;;;;;5059778;28;20174;-88
2024/01/16 02:41:22;;;;;;;17.30;11.03;;;1.40;99.90;;;;;;5058526;28;20191;-89
2024/01/16 02:43:48;;;;;;;15.93;10.53;;;1.00;99.90;;;;;;5041736;28;20232;-88
2024/01/16 02:46:15;;;;;;;17.80;11.50;;;1.10;99.90;;;;;;5058282;28;20555;-88
2024/01/16 02:48:44;;;;;;;17.40;10.00;;;1.00;99.90;;;;;;5058121;28;20564;-88
2024/01/16 02:51:10;;;;;;;20.70;10.93;;;1.50;99.90;;;;;;5058142;28;20327;-88
2024/01/16 02:53:35;;;;;;;13.60;9.33;;;1.20;99.90;;;;;;5057771;28;20344;-88
2024/01/16 02:56:01;;;;;;;13.93;10.73;;;1.00;99.90;;;;;;5057843;28;20225;-88
2024/01/16 02:58:28;;;;;;;14.60;10.37;;;1.00;99.90;;;;;;5057919;28;20251;-88
2024/01/16 03:00:53;;;;;;;13.77;10.77;;;1.10;99.90;;;;;;5058235;28;20261;-88
2024/01/16 03:03:20;;;;;;;17.30;12.07;;;1.00;99.90;;;;;;5057790;28;20213;-88
2024/01/16 03:05:46;;;;;;;12.93;10.83;;;0.90;99.90;;;;;;5057393;28;20314;-88
2024/01/16 03:08:11;;;;;;;15.17;10.73;;;0.90;99.90;;;;;;5057430;28;20189;-86
2024/01/16 03:10:37;;;;;;;14.50;10.37;;;1.10;99.90;;;;;;5057830;28;20178;-87
2024/01/16 03:13:03;;;;;;;18.13;11.93;;;0.90;99.90;;;;;;5057701;28;20206;-87
2024/01/16 03:15:30;;;;;;;21.27;9.63;;;0.80;99.90;;;;;;5057782;28;20217;-88
2024/01/16 03:18:00;;;;;;;12.90;11.03;;;1.10;99.90;;;;;;5057681;28;20397;-87
2024/01/16 03:20:27;;;;;;;16.57;10.77;;;0.90;99.90;;;;;;5057328;28;20197;-87
2024/01/16 03:22:53;;;;;;;14.30;10.73;;;1.10;99.90;;;;;;5057683;28;20284;-87
2024/01/16 03:25:19;;;;;;;13.83;10.97;;;0.90;99.90;;;;;;5057639;28;20194;-87
2024/01/16 03:27:45;;;;;;;16.73;11.77;;;0.90;99.90;;;;;;5057860;28;20185;-87
2024/01/16 03:30:11;;;;;;;15.73;11.20;;;0.90;99.90;;;;;;5057594;28;20182;-87
2024/01/16 03:32:38;;;;;;;12.07;10.70;;;1.00;99.90;;;;;;5058126;28;20206;-87
2024/01/16 03:35:04;;;;;;;16.20;10.93;;;1.00;99.90;;;;;;5061607;28;20252;-89
2024/01/16 03:37:30;;;;;;;13.63;11.47;;;0.80;99.90;;;;;;5056644;28;20205;-87
2024/01/16 03:39:56;;;;;;;16.00;11.87;;;1.30;99.90;;;;;;5057112;28;20259;-87
2024/01/16 03:42:23;;;;;;;20.17;12.73;;;1.00;99.90;;;;;;5040448;28;20178;-87
2024/01/16 03:44:49;;;;;;;13.23;11.83;;;1.30;99.90;;;;;;5056735;28;20237;-88
2024/01/16 03:47:15;;;;;;;15.03;11.60;;;1.10;99.90;;;;;;5057152;28;20191;-87
2024/01/16 03:49:40;;;;;;;15.83;13.07;;;1.00;99.90;;;;;;5056693;28;20178;-87
2024/01/16 03:52:06;;;;;;;16.97;12.27;;;0.90;99.90;;;;;;5056497;28;20202;-87
2024/01/16 03:54:32;;;;;;;11.67;10.17;;;1.00;99.90;;;;;;5056641;28;20194;-88
2024/01/16 03:56:57;;;;;;;16.47;12.63;;;1.10;99.90;;;;;;5056830;28;20170;-88
2024/01/16 03:59:23;;;;;;;21.17;13.20;;;1.10;99.90;;;;;;5057214;28;20178;-87
2024/01/16 04:01:49;;;;;;;15.07;12.50;;;1.40;99.90;;;;;;5057797;28;20553;-87
2024/01/16 04:04:15;;;;;;;19.27;11.80;;;0.90;99.90;;;;;;5057463;28;20194;-88
2024/01/16 04:06:42;;;;;;;18.87;13.70;;;1.10;99.90;;;;;;5057855;28;20186;-88
2024/01/16 04:09:09;;;;;;;18.83;13.20;;;1.10;99.90;;;;;;5057722;28;20675;-87
2024/01/16 04:11:36;;;;;;;11.20;10.03;;;1.00;99.90;;;;;;5057820;28;20201;-88
2024/01/16 04:14:02;;;;;;;17.30;12.10;;;1.00;99.90;;;;;;5057538;28;20645;-87
2024/01/16 04:16:28;;;;;;;18.50;11.43;;;1.10;99.90;;;;;;5040323;28;20206;-86
2024/01/16 04:18:53;;;;;;;13.20;10.47;;;0.70;99.90;;;;;;5057345;28;20381;-88
2024/01/16 04:21:19;;;;;;;16.63;9.30;;;1.00;99.90;;;;;;5057976;28;20687;-87
2024/01/16 04:23:47;;;;;;;13.33;10.33;;;0.90;99.90;;;;;;5059764;28;20181;-87
2024/01/16 04:26:13;;;;;;;18.90;11.77;;;0.70;99.90;;;;;;5057357;28;20694;-88
2024/01/16 04:28:38;;;;;;;15.00;10.53;;;0.80;99.90;;;;;;5058222;28;20190;-87
2024/01/16 04:31:04;;;;;;;12.80;9.50;;;0.60;99.90;;;;;;5057802;28;20269;-88
2024/01/16 04:33:30;;;;;;;13.43;10.47;;;0.80;99.90;;;;;;5057501;28;20208;-88
2024/01/16 04:35:56;;;;;;;15.73;10.83;;;0.90;99.90;;;;;;5057443;28;20190;-88
2024/01/16 04:38:22;;;;;;;15.07;10.60;;;1.10;99.90;;;;;;5057224;28;20257;-88
2024/01/16 04:40:47;;;;;;;17.33;11.30;;;0.70;99.90;;;;;;5060574;28;20320;-88
2024/01/16 04:43:13;;;;;;;22.27;11.20;;;0.80;99.90;;;;;;5056561;28;20215;-88
2024/01/16 04:45:39;;;;;;;15.17;10.43;;;0.90;99.90;;;;;;5060139;28;20222;-87
2024/01/16 04:48:04;;;;;;;15.23;10.53;;;0.70;99.90;;;;;;5058747;28;20607;-87
2024/01/16 04:50:33;;;;;;;19.40;11.10;;;0.70;99.90;;;;;;5058551;28;20784;-87
2024/01/16 04:53:02;;;;;;;18.47;10.40;;;0.80;99.90;;;;;;5062137;28;20210;-88
2024/01/16 04:55:28;;;;;;;15.00;10.63;;;0.80;99.90;;;;;;5056822;28;20219;-87
2024/01/16 04:57:59;;;;;;;11.73;10.40;;;1.60;99.90;;;;;;5057706;28;20170;-87
2024/01/16 05:00:25;;;;;;;13.50;10.40;;;0.80;99.90;;;;;;5057132;28;20194;-86
2024/01/16 05:02:51;;;;;;;19.27;11.27;;;1.00;99.90;;;;;;5075491;28;20177;-86
2024/01/16 05:05:17;;;;;;;12.67;10.33;;;1.00;99.90;;;;;;5055852;28;20251;-87
2024/01/16 05:07:43;;;;;;;21.80;10.67;;;0.90;99.90;;;;;;5055690;28;20186;-87
2024/01/16 05:10:15;;;;;;;16.83;9.60;;;1.10;79.50;;;;;;5054973;28;20178;-87
2024/01/16 05:12:41;;;;;;;13.93;9.00;;;0.80;64.60;;;;;;5055774;28;20288;-87
2024/01/16 05:15:07;;;;;;;10.73;9.57;;;0.90;50.00;;;;;;5055396;28;20194;-87
2024/01/16 05:17:33;;;;;;;12.70;8.80;;;1.00;32.00;;;;;;5056641;28;20181;-87
2024/01/16 05:19:59;;;;;;;17.63;10.20;;;1.00;8.40;;;;;;5057834;28;20259;-87
2024/01/16 05:22:25;;;;;;;16.70;10.43;;;1.10;1.00;;;;;;5055862;28;20181;-87
2024/01/16 05:24:51;;;;;;;15.33;10.13;;;1.00;1.00;;;;;;5055809;28;20193;-87
2024/01/16 05:27:16;;;;;;;16.87;9.83;;;0.80;1.00;;;;;;5055508;28;20265;-87
2024/01/16 05:29:42;;;;;;;24.63;8.67;;;1.00;1.00;;;;;;5055462;28;20196;-87
2024/01/16 05:32:08;;;;;;;13.23;8.47;;;0.80;1.00;;;;;;5055394;28;20217;-86
2024/01/16 05:34:33;;;;;;;11.27;8.70;;;1.10;1.00;;;;;;5055676;28;20217;-86
2024/01/16 05:36:59;;;;;;;13.50;8.00;;;0.80;1.00;;;;;;5055284;28;20645;-87
2024/01/16 05:39:26;;;;;;;13.27;9.70;;;1.00;1.00;;;;;;5055693;28;20205;-86
2024/01/16 05:41:52;;;;;;;12.17;9.17;;;0.90;1.00;;;;;;5055060;28;20181;-88
2024/01/16 05:44:18;;;;;;;12.90;8.67;;;1.00;1.00;;;;;;5055139;28;20194;-86
2024/01/16 05:46:44;;;;;;;17.20;8.13;;;1.00;1.00;;;;;;5055227;28;20174;-86
2024/01/16 05:49:09;;;;;;;21.33;8.80;;;0.80;1.00;;;;;;5055356;28;20553;-87
2024/01/16 05:51:36;;;;;;;12.63;9.23;;;1.00;1.00;;;;;;5055375;28;20181;-86
2024/01/16 05:54:03;;;;;;;9.57;7.83;;;0.90;1.00;;;;;;5055322;28;20219;-87
2024/01/16 05:56:29;;;;;;;15.90;8.73;;;0.80;1.00;;;;;;5038782;28;20679;-87
2024/01/16 05:58:54;;;;;;;12.33;8.20;;;1.00;99.90;;;;;;5055396;28;20174;-87
2024/01/16 06:01:20;;;;;;;16.80;7.80;;;1.20;99.90;;;;;;5054932;28;20178;-87
2024/01/16 06:03:48;;;;;;;18.37;7.70;;;0.80;99.90;;;;;;5054946;28;20182;-86
2024/01/16 06:06:14;;;;;;;12.60;7.03;;;1.00;99.90;;;;;;5055635;28;20174;-87
2024/01/16 06:08:40;;;;;;;15.47;7.50;;;0.90;73.80;;;;;;5058602;28;20556;-87
2024/01/16 06:11:05;;;;;;;9.90;5.97;;;1.00;21.40;;;;;;5054808;28;20213;-88
2024/01/16 06:13:32;;;;;;;14.17;7.40;;;1.20;1.00;;;;;;5074243;28;20198;-87
2024/01/16 06:15:58;;;;;;;7.67;6.73;;;1.10;1.00;;;;;;5054878;28;20194;-87
2024/01/16 06:18:24;;;;;;;10.83;7.57;;;1.10;99.90;;;;;;5055012;28;20338;-87
2024/01/16 06:20:49;;;;;;;10.67;7.23;;;1.20;99.90;;;;;;5055335;28;20205;-88
2024/01/16 06:23:15;;;;;;;6.60;6.00;;;1.00;99.90;;;;;;5054938;28;20190;-87
2024/01/16 06:25:41;;;;;;;11.53;7.20;;;0.90;1.00;;;;;;5055686;28;20206;-88
2024/01/16 06:28:07;;;;;;;13.83;7.87;;;1.10;1.00;;;;;;5038499;28;20205;-88
2024/01/16 06:30:33;;;;;;;12.83;6.43;;;1.10;99.90;;;;;;5066078;28;20216;-87
2024/01/16 06:32:58;;;;;;;7.93;6.10;;;1.40;81.40;;;;;;5055315;28;20233;-88
2024/01/16 06:35:24;;;;;;;6.93;6.23;;;1.00;1.00;;;;;;5056148;28;20200;-87
2024/01/16 06:37:49;;;;;;;10.77;6.83;;;1.50;1.00;;;;;;5055669;28;20279;-87
2024/01/16 06:40:15;;;;;;;10.23;7.03;;;1.30;1.00;;;;;;5057229;28;20272;-87
2024/01/16 06:42:42;;;;;;;9.13;7.30;;;1.20;99.90;;;;;;5058635;28;20179;-87
2024/01/16 06:45:10;;;;;;;10.40;7.87;;;1.00;99.90;;;;;;5058248;28;20240;-87
2024/01/16 06:47:36;;;;;;;10.48;7.20;;;1.20;99.90;;;;;;5074294;28;20434;-87
2024/01/16 06:50:03;;;;;;;14.30;6.40;;;1.10;99.90;;;;;;5058052;28;20181;-87
2024/01/16 06:52:28;;;;;;;6.60;6.00;;;1.30;99.90;;;;;;5058248;28;20198;-87
2024/01/16 06:54:54;;;;;;;8.30;6.50;;;1.50;99.90;;;;;;5058970;28;20292;-90
2024/01/16 06:57:20;;;;;;;17.20;8.40;;;1.30;99.90;;;;;;5057788;28;20255;-91
2024/01/16 06:59:46;;;;;;;10.87;7.07;;;1.80;99.90;;;;;;5059484;28;20174;-89
2024/01/16 07:02:12;;;;;;;13.07;7.90;;;2.00;99.90;;;;;;5059338;28;20576;-90
2024/01/16 07:04:39;;;;;;;13.43;7.00;;;1.50;1.00;;;;;;5058656;28;20205;-89
2024/01/16 07:07:04;;;;;;;9.93;6.87;;;1.30;1.00;;;;;;5058387;28;20181;-87
2024/01/16 07:09:30;;;;;;;11.30;7.97;;;1.90;1.00;;;;;;5058355;28;20174;-88
2024/01/16 07:11:55;;;;;;;13.67;7.40;;;1.80;1.00;;;;;;5060301;28;20173;-88
2024/01/16 07:14:21;;;;;;;15.53;8.33;;;1.40;1.00;;;;;;5058181;28;20205;-90
2024/01/16 07:16:47;;;;;;;15.97;6.90;;;1.30;99.90;;;;;;5056287;28;20182;-89
2024/01/16 07:19:13;;;;;;;15.33;8.17;;;1.20;99.90;;;;;;5058334;28;20185;-89
2024/01/16 07:21:39;;;;;;;13.30;7.57;;;1.30;1.00;;;;;;5057909;28;20636;-89
2024/01/16 07:24:08;;;;;;;12.80;7.50;;;1.40;1.00;;;;;;5075919;28;20698;-89
2024/01/16 07:26:34;;;;;;;21.73;7.80;;;1.50;1.00;;;;;;5057331;28;20209;-89
2024/01/16 07:29:00;;;;;;;16.37;7.97;;;1.20;99.90;;;;;;5041553;28;20668;-90
2024/01/16 07:31:27;;;;;;;11.73;7.70;;;1.30;99.90;;;;;;5057950;28;20639;-89
2024/01/16 07:33:53;;;;;;;19.10;8.17;;;1.20;99.90;;;;;;5057895;28;20212;-89
2024/01/16 07:36:18;;;;;;;15.23;7.40;;;1.50;99.90;;;;;;5057777;28;20261;-89
2024/01/16 07:38:44;;;;;;;16.77;8.10;;;1.00;99.90;;;;;;5057752;28;20182;-89
2024/01/16 07:41:10;;;;;;;7.93;7.20;;;1.20;40.90;;;;;;5057342;28;20596;-89
2024/01/16 07:43:35;;;;;;;12.00;7.50;;;1.60;99.90;;;;;;5058183;28;20542;-90
2024/01/16 07:46:02;;;;;;;14.17;6.83;;;0.80;65.90;;;;;;5057728;28;20198;-89
2024/01/16 07:48:29;;;;;;;11.40;7.00;;;0.80;1.00;;;;;;5075827;28;20174;-89
2024/01/16 07:50:55;;;;;;;11.73;6.87;;;0.90;99.90;;;;;;5056475;28;20174;-89
2024/01/16 07:53:30;;;;;;;11.10;6.80;;;0.90;1.00;;;;;;5058023;28;20766;-89
2024/01/16 07:55:56;;;;;;;7.67;6.83;;;1.50;1.00;;;;;;5057663;28;20709;-90
2024/01/16 07:58:22;;;;;;;7.53;6.67;;;1.20;99.90;;;;;;5057234;28;20178;-89
2024/01/16 08:00:47;;;;;;;11.97;7.67;;;1.60;1.00;;;;;;5060550;28;20710;-89
2024/01/16 08:03:14;;;;;;;11.87;8.97;;;0.80;1.00;;;;;;5060598;28;20524;-90
2024/01/16 08:05:40;;;;;;;12.13;7.30;;;1.40;1.00;;;;;;5060814;28;20204;-89
2024/01/16 08:08:08;;;;;;;12.73;7.33;;;1.00;99.90;;;;;;5059733;28;20257;-89
2024/01/16 08:10:35;;;;;;;8.27;6.67;;;1.30;99.90;;;;;;5058541;28;20178;-90
2024/01/16 08:13:01;;;;;;;10.77;6.90;;;0.80;99.90;;;;;;5060856;28;20201;-89
2024/01/16 08:15:27;;;;;;;12.47;7.00;;;1.00;1.00;;;;;;5057611;28;20198;-90
2024/01/16 08:17:55;;;;;;;14.50;7.43;;;1.20;1.00;;;;;;5062597;28;20250;-90
2024/01/16 08:20:21;;;;;;;11.20;7.57;;;1.30;1.00;;;;;;5042261;28;20174;-90
2024/01/16 08:22:46;;;;;;;20.60;8.90;;;1.30;1.00;;;;;;5044092;28;20213;-90
2024/01/16 08:25:12;;;;;;;10.00;7.47;;;1.60;1.00;;;;;;5060624;28;20725;-91
2024/01/16 08:27:38;;;;;;;10.67;6.63;;;1.40;1.00;;;;;;5043090;28;20542;-91
2024/01/16 08:30:07;;;;;;;11.93;6.50;;;2.00;1.00;;;;;;5059145;28;20189;-92
2024/01/16 08:32:32;;;;;;;10.70;6.30;;;1.40;1.00;;;;;;5060668;28;20217;-88
2024/01/16 08:34:58;;;;;;;8.83;6.57;;;1.80;99.90;;;;;;5058078;28;20548;-89
2024/01/16 08:37:25;;;;;;;8.83;6.63;;;1.50;99.90;;;;;;5043887;28;20166;-89
2024/01/16 08:39:52;;;;;;;9.17;7.23;;;1.60;99.90;;;;;;5075247;28;20170;-90
2024/01/16 08:42:18;;;;;;;12.63;6.90;;;1.30;99.90;;;;;;5075280;28;20182;-90
2024/01/16 08:44:44;;;;;;;11.63;6.13;;;1.60;99.90;;;;;;5057622;28;20281;-89
2024/01/16 08:47:09;;;;;;;8.00;6.83;;;1.90;99.90;;;;;;5055802;28;20213;-89
2024/01/16 08:49:38;;;;;;;10.07;6.00;;;1.40;99.90;;;;;;5058726;28;20182;-90
2024/01/16 08:52:05;;;;;;;10.60;6.57;;;1.40;99.90;;;;;;5059217;28;20743;-93
2024/01/16 08:54:31;;;;;;;7.30;6.17;;;1.20;99.90;;;;;;5042266;28;20237;-91
2024/01/16 08:56:58;;;;;;;11.40;7.30;;;1.30;99.90;;;;;;5040978;28;20178;-91
2024/01/16 08:59:24;;;;;;;11.27;6.70;;;1.30;99.90;;;;;;5057298;28;20266;-91
2024/01/16 09:01:51;;;;;;;11.43;7.10;;;1.90;99.90;;;;;;5049124;28;20175;-91
2024/01/16 09:04:17;;;;;;;10.20;6.33;;;2.50;98.20;;;;;;5041978;28;20302;-89
2024/01/16 09:06:43;;;;;;;8.77;6.63;;;1.90;97.00;;;;;;5056929;28;20209;-89
2024/01/16 09:09:09;;;;;;;14.97;7.20;;;2.20;26.80;;;;;;5056500;28;20265;-89
2024/01/16 09:11:37;;;;;;;10.60;6.60;;;2.60;25.10;;;;;;5041233;28;20260;-89
2024/01/16 09:14:03;;;;;;;8.87;6.33;;;2.20;1.00;;;;;;5043824;28;20195;-89
2024/01/16 09:16:30;;;;;;;8.80;6.23;;;2.10;1.00;;;;;;5059767;28;20175;-90
2024/01/16 09:18:56;;;;;;;18.00;6.73;;;2.00;1.00;;;;;;5076604;28;20177;-90
2024/01/16 09:21:22;;;;;;;9.30;6.63;;;2.10;1.00;;;;;;5050262;28;20210;-89
2024/01/16 09:23:50;;;;;;;6.17;5.57;;;2.40;1.00;;;;;;5063575;28;20182;-90
2024/01/16 09:26:17;;;;;;;8.37;6.70;;;2.00;1.00;;;;;;5061240;28;20202;-90
2024/01/16 09:28:43;;;;;;;8.80;6.90;;;2.50;1.00;;;;;;5057911;28;20228;-89
2024/01/16 09:31:09;;;;;;;11.50;6.50;;;1.90;1.00;;;;;;5056902;28;20178;-90
2024/01/16 09:33:35;;;;;;;11.67;6.63;;;1.90;1.00;;;;;;5039832;28;20217;-90
2024/01/16 09:36:00;;;;;;;8.17;6.50;;;1.80;1.00;;;;;;5056565;28;20284;-90
2024/01/16 09:38:26;;;;;;;12.80;6.10;;;2.60;1.00;;;;;;5055572;28;20239;-90
2024/01/16 09:40:56;;;;;;;6.70;6.10;;;2.10;1.00;;;;;;5057434;28;20630;-90
2024/01/16 09:43:22;;;;;;;8.27;6.03;;;1.90;1.00;;;;;;5055972;28;20265;-90
2024/01/16 09:45:51;;;;;;;11.70;6.30;;;2.40;1.00;;;;;;5055434;28;20198;-90
2024/01/16 09:48:16;;;;;;;7.17;6.33;;;1.80;1.00;;;;;;5055103;28;20190;-91
2024/01/16 09:50:42;;;;;;;9.47;6.73;;;2.40;1.00;;;;;;5055698;28;20228;-90
2024/01/16 09:53:08;;;;;;;7.53;5.90;;;2.50;1.00;;;;;;5055569;28;20591;-90
2024/01/16 09:55:33;;;;;;;10.73;6.67;;;2.40;1.00;;;;;;5038740;28;20572;-90
2024/01/16 09:58:00;;;;;;;9.60;6.63;;;2.30;1.00;;;;;;5056321;28;20196;-90
2024/01/16 10:00:27;;;;;;;9.80;6.77;;;2.20;1.00;;;;;;5055507;28;20677;-90
2024/01/16 10:02:58;;;;;;;8.17;6.70;;;2.10;1.00;;;;;;5039233;28;20216;-89
2024/01/16 10:05:30;;;;;;;7.20;6.47;;;1.90;1.00;;;;;;5073162;28;20201;-90
2024/01/16 10:07:59;;;;;;;11.67;6.30;;;2.20;1.00;;;;;;5054810;28;20186;-89
2024/01/16 10:10:28;;;;;;;14.87;6.77;;;2.40;1.00;;;;;;5055248;28;20603;-89
2024/01/16 10:12:57;;;;;;;9.23;7.40;;;2.70;1.00;;;;;;5055416;28;20202;-90
2024/01/16 10:15:23;;;;;;;10.70;6.50;;;2.20;1.00;;;;;;5057495;28;20186;-89
2024/01/16 10:17:49;;;;;;;9.33;5.47;;;2.30;1.00;;;;;;5059216;28;20198;-88
2024/01/16 10:20:17;;;;;;;7.80;5.77;;;2.40;1.00;;;;;;5042180;28;20682;-90
2024/01/16 10:22:53;;;;;;;7.27;5.97;;;2.60;1.00;;;;;;5056544;28;20186;-90
2024/01/16 10:25:21;;;;;;;7.37;5.80;;;2.60;1.00;;;;;;5059257;28;20190;-90
2024/01/16 10:27:47;;;;;;;7.60;5.83;;;2.80;1.00;;;;;;5058866;28;20193;-90
2024/01/16 10:30:21;;;;;;;6.20;5.60;;;2.60;1.00;;;;;;5027852;28;20174;-90
2024/01/16 10:32:48;;;;;;;6.70;6.07;;;2.90;1.00;;;;;;5056416;28;20694;-89
2024/01/16 10:35:14;;;;;;;6.10;5.47;;;3.20;1.00;;;;;;5058901;28;20213;-90
2024/01/16 10:37:55;;;;;;;7.13;6.03;;;2.70;1.00;;;;;;5059229;28;20174;-90
2024/01/16 10:40:29;;;;;;;12.40;6.10;;;2.90;1.00;;;;;;5058430;28;20178;-90
2024/01/16 10:43:03;;;;;;;11.33;6.10;;;3.00;1.00;;;;;;5058642;28;20174;-90
2024/01/16 10:45:29;;;;;;;10.60;6.10;;;3.00;1.00;;;;;;5057901;28;20194;-91
2024/01/16 10:48:07;;;;;;;10.17;5.40;;;3.20;1.00;;;;;;5058376;28;20170;-90
2024/01/16 10:50:34;;;;;;;10.53;5.57;;;3.40;1.00;;;;;;5041968;28;20679;-90
2024/01/16 10:53:05;;;;;;;7.17;5.73;;;3.80;1.00;;;;;;5059845;28;20286;-90
2024/01/16 10:55:37;;;;;;;15.17;6.00;;;3.80;1.00;;;;;;5058133;28;20205;-89
2024/01/16 10:58:05;;;;;;;11.03;5.93;;;4.20;1.00;;;;;;5058475;28;20170;-89
2024/01/16 11:00:34;;;;;;;8.00;4.77;;;4.20;1.00;;;;;;5058506;28;20276;-90
2024/01/16 11:03:12;;;;;;;8.93;6.77;;;4.50;1.00;;;;;;5058169;28;20197;-90
2024/01/16 11:05:40;;;;;;;6.77;5.00;;;5.00;1.00;;;;;;5058261;28;20251;-89
2024/01/16 11:08:05;;;;;;;8.03;5.83;;;4.30;1.00;;;;;;5058031;28;20178;-92
2024/01/16 11:10:32;;;;;;;9.33;5.53;;;4.20;1.00;;;;;;5062209;28;20177;-89
2024/01/16 11:13:02;;;;;;;8.37;5.67;;;4.00;1.00;;;;;;5058038;28;20267;-90
2024/01/16 11:15:28;;;;;;;11.17;6.13;;;3.60;1.00;;;;;;5057555;28;20609;-90
2024/01/16 11:17:55;;;;;;;8.63;6.00;;;3.80;1.00;;;;;;5057413;28;20174;-91
2024/01/16 11:20:22;;;;;;;8.93;5.70;;;3.10;1.00;;;;;;5058384;28;20216;-89
2024/01/16 11:22:49;;;;;;;6.57;5.63;;;2.90;1.00;;;;;;5020594;28;20263;-89
2024/01/16 11:25:18;;;;;;;9.27;7.37;;;2.90;1.00;;;;;;5056720;28;20229;-90
2024/01/16 11:27:46;;;;;;;8.53;6.10;;;3.00;1.00;;;;;;5057255;28;20194;-90
2024/01/16 11:30:12;;;;;;;13.73;6.33;;;2.80;1.00;;;;;;5057029;28;20186;-90
2024/01/16 11:32:42;;;;;;;10.20;6.40;;;2.90;1.00;;;;;;5057669;28;20194;-90
2024/01/16 11:35:08;;;;;;;8.67;6.77;;;2.70;1.00;;;;;;5057735;28;20195;-90
2024/01/16 11:37:37;;;;;;;9.67;6.27;;;2.90;1.00;;;;;;5057387;28;20262;-90
2024/01/16 11:40:20;;;;;;;11.63;6.30;;;2.70;1.00;;;;;;5057255;28;20205;-90
2024/01/16 11:42:53;;;;;;;8.90;6.20;;;2.60;1.00;;;;;;5057402;28;20170;-90
2024/01/16 11:45:31;;;;;;;6.83;6.23;;;2.30;1.00;;;;;;5052528;28;20247;-90
2024/01/16 11:48:16;;;;;;;6.93;6.20;;;2.30;1.00;;;;;;5057034;28;20170;-91
2024/01/16 11:50:43;;;;;;;9.50;6.37;;;2.10;1.00;;;;;;5057333;28;20223;-90
2024/01/16 11:53:08;;;;;;;8.07;6.10;;;2.70;1.00;;;;;;5071064;23;20897;-73
2024/01/16 11:55:59;;;;;;;10.43;6.13;;;2.10;1.00;;;;;;5082421;28;20174;-71
2024/01/16 11:58:45;;;;;;;11.97;5.57;;;2.20;1.00;;;;;;5083650;28;20201;-70
2024/01/16 12:01:12;;;;;;;8.53;5.87;;;2.20;1.00;;;;;;5084105;28;20188;-71
2024/01/16 12:03:37;;;;;;;6.70;6.00;;;2.40;1.00;;;;;;5085632;28;20251;-72
2024/01/16 12:06:06;;;;;;;6.47;5.83;;;2.70;1.00;;;;;;5082859;28;20268;-71
2024/01/16 12:08:32;;;;;;;6.67;5.70;;;3.10;1.00;;;;;;5081702;28;20661;-70
2024/01/16 12:10:57;;;;;;;7.73;5.50;;;3.70;1.00;;;;;;5060860;28;20182;-70
2024/01/16 12:13:23;;;;;;;7.53;5.80;;;3.80;1.00;;;;;;5078515;28;20220;-71
2024/01/16 12:16:03;;;;;;;7.80;5.63;;;3.90;1.00;;;;;;5071681;28;20546;-71
2024/01/16 12:18:29;;;;;;;8.03;5.63;;;4.30;1.00;;;;;;5060425;28;20308;-71
2024/01/16 12:20:55;;;;;;;9.10;4.97;;;4.70;1.00;;;;;;5067766;28;20372;-71
2024/01/16 12:23:23;;;;;;;9.67;5.20;;;4.90;1.00;;;;;;5077260;28;20174;-71
2024/01/16 12:25:54;;;;;;;5.70;5.10;;;5.10;1.00;;;;;;5080534;28;20721;-71
2024/01/16 12:28:21;;;;;;;8.17;5.33;;;4.90;1.00;;;;;;5082818;28;20243;-72
2024/01/16 12:30:51;;;;;;;8.23;5.30;;;5.00;1.00;;;;;;5065029;28;20182;-72
2024/01/16 12:33:21;;;;;;;9.23;5.40;;;4.60;1.00;;;;;;5084024;28;20194;-73
2024/01/16 12:35:47;;;;;;;8.53;5.87;;;4.40;1.00;;;;;;5080854;28;20182;-73
2024/01/16 12:38:13;;;;;;;13.07;5.70;;;4.10;1.00;;;;;;5071408;28;20201;-70
2024/01/16 12:40:41;;;;;;;9.03;6.10;;;4.00;1.00;;;;;;5071455;28;20648;-70
2024/01/16 12:43:09;;;;;;;11.07;7.63;;;4.10;1.00;;;;;;5072167;28;20176;-70
2024/01/16 12:45:35;;;;;;;8.07;5.67;;;4.50;1.00;;;;;;5071872;28;20179;-70
2024/01/16 12:48:03;;;;;;;5.73;5.03;;;4.60;1.00;;;;;;5071968;28;20282;-70
2024/01/16 12:50:30;;;;;;;15.33;7.70;;;4.70;1.00;;;;;;5071819;28;20178;-70